This is the latest recevied weather packets stored in our database for station/object DM4XI-13. If no packets are shown the sender has not sent any weather packets the latest 10 day(s).
| Time | Temp. | Humidity | Pressure | Rain* | Wind** | Luminosity | Snow |
|---|---|---|---|---|---|---|---|
| 1778257533 | 17.78° C | 47% | 1013.9 hPa | 0 mm | 0.89 m/s, 293° | 163 W/m² | - |
| 1778257472 | 17.78° C | 48% | 1014.2 hPa | 0 mm | 0.89 m/s, 123° | 164 W/m² | - |
| 1778257411 | 17.78° C | 48% | 1014.2 hPa | 0 mm | 0 m/s | 170 W/m² | - |
| 1778257350 | 17.78° C | 48% | 1014.2 hPa | 0 mm | 0.45 m/s, 12° | 174 W/m² | - |
| 1778257289 | 17.78° C | 49% | 1014 hPa | 0 mm | 0.89 m/s, 349° | 171 W/m² | - |
| 1778257228 | 17.78° C | 48% | 1014.2 hPa | 0 mm | 0.45 m/s, 312° | 179 W/m² | - |
| 1778257167 | 17.78° C | 48% | 1014.3 hPa | 0 mm | 0.89 m/s, 351° | 181 W/m² | - |
| 1778257106 | 17.78° C | 48% | 1014.2 hPa | 0 mm | 1.79 m/s, 349° | 182 W/m² | - |
| 1778257045 | 17.78° C | 47% | 1014.2 hPa | 0 mm | 1.34 m/s, 331° | 183 W/m² | - |
| 1778256984 | 17.78° C | 47% | 1014.1 hPa | 0 mm | 0.89 m/s, 14° | 171 W/m² | - |
| 1778256923 | 17.78° C | 49% | 1014.1 hPa | 0 mm | 0.89 m/s, 244° | 195 W/m² | - |
| 1778256862 | 17.78° C | 48% | 1014.1 hPa | 0 mm | 0.45 m/s, 193° | 203 W/m² | - |
| 1778256801 | 17.78° C | 48% | 1014.2 hPa | 0 mm | 0.45 m/s, 302° | 204 W/m² | - |
| 1778256740 | 17.78° C | 48% | 1014.3 hPa | 0 mm | 0 m/s | 202 W/m² | - |
| 1778256679 | 17.78° C | 46% | 1014.3 hPa | 0 mm | 1.79 m/s, 21° | 116 W/m² | - |
| 1778256618 | 17.78° C | 48% | 1014.1 hPa | 0 mm | 1.34 m/s, 321° | 184 W/m² | - |
| 1778256557 | 17.78° C | 48% | 1014.2 hPa | 0 mm | 0.89 m/s, 327° | 220 W/m² | - |
| 1778256496 | 17.78° C | 48% | 1014.2 hPa | 0 mm | 0 m/s | 224 W/m² | - |
| 1778256435 | 17.78° C | 48% | 1014.3 hPa | 0 mm | 1.79 m/s, 23° | 175 W/m² | - |
| 1778256374 | 17.78° C | 49% | 1014.3 hPa | 0 mm | 0.89 m/s, 288° | 223 W/m² | - |
| 1778256313 | 17.78° C | 48% | 1014 hPa | 0 mm | 2.68 m/s, 11° | 231 W/m² | - |
| 1778256252 | 17.78° C | 48% | 1014.1 hPa | 0 mm | 1.34 m/s, 352° | 236 W/m² | - |
| 1778256191 | 17.78° C | 49% | 1014.1 hPa | 0 mm | 1.34 m/s, 308° | 240 W/m² | - |
| 1778256130 | 17.78° C | 47% | 1014 hPa | 0 mm | 0.89 m/s, 299° | 245 W/m² | - |
| 1778256069 | 17.78° C | 48% | 1014.1 hPa | 0 mm | 1.34 m/s, 237° | 249 W/m² | - |
* Rain latest hour (hover to see other rain measurements)
** Current wind speed in m/s (hover to see current wind gust speed)